createdAt,value
2023-02-05T00:01:23.749Z,99700.16
2023-02-05T00:03:50.363Z,99694.16
2023-02-05T00:06:16.783Z,99705.16
2023-02-05T00:08:43.261Z,99696.75
2023-02-05T00:11:09.849Z,99692.50
2023-02-05T00:13:37.622Z,99689.25
2023-02-05T00:16:09.582Z,99700.00
2023-02-05T00:18:37.412Z,99702.50
2023-02-05T00:21:05.280Z,99703.50
2023-02-05T00:23:32.115Z,99697.53
2023-02-05T00:25:58.570Z,99695.88
2023-02-05T00:28:25.023Z,99701.94
2023-02-05T00:30:51.599Z,99691.34
2023-02-05T00:33:18.199Z,99691.34
2023-02-05T00:35:45.782Z,99686.16
2023-02-05T00:38:12.475Z,99681.06
2023-02-05T00:40:38.901Z,99682.94
2023-02-05T00:43:05.327Z,99670.78
2023-02-05T00:45:35.266Z,99669.97
2023-02-05T00:48:03.378Z,99660.69
2023-02-05T00:50:29.796Z,99657.97
2023-02-05T00:52:56.361Z,99654.66
2023-02-05T00:55:23.296Z,99653.81
2023-02-05T00:57:50.222Z,99655.59
2023-02-05T01:00:17.318Z,99645.91
2023-02-05T01:02:43.970Z,99652.34
2023-02-05T01:05:10.624Z,99650.66
2023-02-05T01:07:37.017Z,99644.31
2023-02-05T01:10:04.944Z,99635.13
2023-02-05T01:12:33.265Z,99645.81
2023-02-05T01:15:00.850Z,99622.81
2023-02-05T01:17:27.318Z,99612.72
2023-02-05T01:19:53.757Z,99598.72
2023-02-05T01:22:20.268Z,99610.91
2023-02-05T01:24:46.861Z,99598.50
2023-02-05T01:27:13.296Z,99601.16
2023-02-05T01:29:39.710Z,99585.59
2023-02-05T01:32:06.206Z,99590.72
2023-02-05T01:34:32.649Z,99595.91
2023-02-05T01:36:59.079Z,99586.66
2023-02-05T01:39:25.523Z,99580.75
2023-02-05T01:41:51.992Z,99595.56
2023-02-05T01:44:24.863Z,99593.78
2023-02-05T01:46:53.546Z,99612.03
2023-02-05T01:49:26.659Z,99604.97
2023-02-05T01:51:54.990Z,99598.00
2023-02-05T01:54:25.478Z,99585.38
2023-02-05T01:57:01.166Z,99594.22
2023-02-05T01:59:30.730Z,99586.56
2023-02-05T02:02:00.757Z,99598.84
2023-02-05T02:04:47.289Z,99599.44
2023-02-05T02:07:16.604Z,99593.03
2023-02-05T02:09:45.470Z,99601.00
2023-02-05T02:12:16.244Z,99604.03
2023-02-05T02:14:46.776Z,99584.81
2023-02-05T02:17:17.348Z,99576.22
2023-02-05T02:19:58.638Z,99575.03
2023-02-05T02:22:56.694Z,99580.03
2023-02-05T02:25:29.541Z,99574.94
2023-02-05T02:28:02.878Z,99577.56
2023-02-05T02:30:42.600Z,99563.34
2023-02-05T02:33:18.766Z,99593.88
2023-02-05T02:36:03.491Z,99603.66
2023-02-05T02:38:43.587Z,99598.41
2023-02-05T02:41:18.868Z,99599.84
2023-02-05T02:43:54.136Z,99599.13
2023-02-05T02:46:32.251Z,99616.34
2023-02-05T02:49:02.938Z,99599.72
2023-02-05T02:51:31.675Z,99598.47
2023-02-05T02:54:01.601Z,99589.22
2023-02-05T02:56:32.145Z,99598.19
2023-02-05T02:59:06.202Z,99596.06
2023-02-05T03:01:35.577Z,99584.97
2023-02-05T03:04:11.043Z,99574.88
2023-02-05T03:06:40.082Z,99553.81
2023-02-05T03:09:13.192Z,99579.63
2023-02-05T03:11:39.626Z,99569.94
2023-02-05T03:14:06.176Z,99579.88
2023-02-05T03:16:33.181Z,99596.84
2023-02-05T03:19:00.232Z,99585.13
2023-02-05T03:21:42.808Z,99585.84
2023-02-05T03:24:10.392Z,99594.59
2023-02-05T03:26:38.219Z,99606.78
2023-02-05T03:29:14.396Z,99621.78
2023-02-05T03:31:59.463Z,99611.72
2023-02-05T03:34:35.353Z,99595.16
2023-02-05T03:37:19.552Z,99608.53
2023-02-05T03:39:59.803Z,99607.28
2023-02-05T03:42:36.524Z,99603.03
2023-02-05T03:45:23.886Z,99606.84
2023-02-05T03:48:13.394Z,99608.41
2023-02-05T03:50:54.357Z,99601.31
2023-02-05T03:53:57.900Z,99621.94
2023-02-05T03:56:39.277Z,99610.84
2023-02-05T03:59:06.930Z,99617.59
2023-02-05T04:01:34.729Z,99629.78
2023-02-05T04:04:01.224Z,99632.50
2023-02-05T04:06:27.791Z,99635.97
2023-02-05T04:08:54.252Z,99629.28
2023-02-05T04:11:20.784Z,99627.22
2023-02-05T04:13:47.152Z,99640.84
2023-02-05T04:16:13.691Z,99657.94
2023-02-05T04:18:40.154Z,99675.34
2023-02-05T04:21:06.734Z,99668.38
2023-02-05T04:23:33.149Z,99680.13
2023-02-05T04:25:59.561Z,99677.56
2023-02-05T04:28:26.038Z,99684.44
2023-02-05T04:30:52.484Z,99674.34
2023-02-05T04:33:18.985Z,99680.22
2023-02-05T04:35:45.415Z,99680.28
2023-02-05T04:38:11.818Z,99670.69
2023-02-05T04:40:38.648Z,99681.03
2023-02-05T04:43:05.153Z,99682.66
2023-02-05T04:45:33.601Z,99672.63
2023-02-05T04:48:00.624Z,99681.44
2023-02-05T04:50:27.476Z,99676.03
2023-02-05T04:52:54.261Z,99672.34
2023-02-05T04:55:21.060Z,99664.28
2023-02-05T04:57:47.468Z,99677.31
2023-02-05T05:00:14.369Z,99674.31
2023-02-05T05:02:41.002Z,99661.47
2023-02-05T05:05:07.874Z,99664.81
2023-02-05T05:07:34.308Z,99660.25
2023-02-05T05:10:00.716Z,99677.00
2023-02-05T05:12:27.113Z,99682.31
2023-02-05T05:14:53.524Z,99674.41
2023-02-05T05:17:19.943Z,99685.84
2023-02-05T05:19:48.513Z,99680.09
2023-02-05T05:22:14.940Z,99670.78
2023-02-05T05:24:41.451Z,99663.59
2023-02-05T05:27:07.892Z,99664.84
2023-02-05T05:29:35.239Z,99661.47
2023-02-05T05:32:01.723Z,99682.69
2023-02-05T05:34:28.398Z,99680.81
2023-02-05T05:36:55.334Z,99682.19
2023-02-05T05:39:40.359Z,99676.03
2023-02-05T05:42:25.656Z,99685.53
2023-02-05T05:44:52.183Z,99686.41
2023-02-05T05:47:19.447Z,99689.91
2023-02-05T05:49:46.286Z,99676.75
2023-02-05T05:52:12.882Z,99683.28
2023-02-05T05:54:39.318Z,99674.56
2023-02-05T05:57:07.842Z,99672.53
2023-02-05T05:59:34.514Z,99679.38
2023-02-05T06:02:02.557Z,99674.44
2023-02-05T06:04:29.034Z,99678.94
2023-02-05T06:06:55.526Z,99682.47
2023-02-05T06:09:21.955Z,99683.38
2023-02-05T06:11:48.766Z,99674.59
2023-02-05T06:14:15.169Z,99672.06
2023-02-05T06:16:41.596Z,99671.53
2023-02-05T06:19:08.269Z,99674.13
2023-02-05T06:21:34.684Z,99687.59
2023-02-05T06:24:01.056Z,99688.97
2023-02-05T06:26:27.658Z,99661.63
2023-02-05T06:28:57.125Z,99680.88
2023-02-05T06:31:24.329Z,99684.13
2023-02-05T06:33:50.903Z,99702.56
2023-02-05T06:36:17.336Z,99694.69
2023-02-05T06:38:43.749Z,99686.31
2023-02-05T06:41:10.411Z,99698.22
2023-02-05T06:43:36.849Z,99690.22
2023-02-05T06:46:03.393Z,99692.59
2023-02-05T06:48:29.819Z,99674.03
2023-02-05T06:50:56.252Z,99684.59
2023-02-05T06:53:23.194Z,99688.59
2023-02-05T06:55:49.728Z,99676.50
2023-02-05T06:58:16.129Z,99670.41
2023-02-05T07:00:43.177Z,99679.38
2023-02-05T07:03:09.574Z,99660.63
2023-02-05T07:05:36.323Z,99652.31
2023-02-05T07:08:04.230Z,99649.09
2023-02-05T07:10:30.881Z,99652.91
2023-02-05T07:12:57.342Z,99664.75
2023-02-05T07:15:23.747Z,99663.63
2023-02-05T07:17:50.466Z,99641.69
2023-02-05T07:20:18.715Z,99646.81
2023-02-05T07:22:47.075Z,99634.78
2023-02-05T07:25:13.476Z,99633.13
2023-02-05T07:27:39.866Z,99632.59
2023-02-05T07:30:07.386Z,99638.41
2023-02-05T07:32:33.775Z,99644.47
2023-02-05T07:35:00.300Z,99646.88
2023-02-05T07:37:26.990Z,99640.88
2023-02-05T07:39:53.400Z,99645.66
2023-02-05T07:42:19.815Z,99633.81
2023-02-05T07:44:46.190Z,99617.75
2023-02-05T07:47:15.602Z,99621.53
2023-02-05T07:49:42.064Z,99629.25
2023-02-05T07:52:08.443Z,99629.66
2023-02-05T07:54:35.558Z,99619.19
2023-02-05T07:57:02.093Z,99600.09
2023-02-05T07:59:28.714Z,99590.63
2023-02-05T08:01:55.126Z,99585.38
2023-02-05T08:04:21.547Z,99578.88
2023-02-05T08:06:47.956Z,99578.75
2023-02-05T08:09:14.629Z,99575.72
2023-02-05T08:11:41.030Z,99576.38
2023-02-05T08:14:07.464Z,99573.66
2023-02-05T08:16:34.022Z,99583.84
2023-02-05T08:19:00.458Z,99574.13
2023-02-05T08:21:26.892Z,99578.97
2023-02-05T08:23:53.683Z,99576.84
2023-02-05T08:26:20.289Z,99585.66
2023-02-05T08:28:46.680Z,99570.97
2023-02-05T08:31:19.031Z,99587.16
2023-02-05T08:33:47.683Z,99589.50
2023-02-05T08:36:14.425Z,99594.94
2023-02-05T08:38:40.845Z,99614.13
2023-02-05T08:41:12.869Z,99597.63
2023-02-05T08:43:44.432Z,99574.72
2023-02-05T08:46:12.292Z,99573.31
2023-02-05T08:48:38.821Z,99571.19
2023-02-05T08:51:05.859Z,99581.31
2023-02-05T08:53:32.941Z,99576.25
2023-02-05T08:56:01.387Z,99590.56
2023-02-05T08:58:28.592Z,99588.28
2023-02-05T09:01:10.363Z,99606.13
2023-02-05T09:03:37.102Z,99611.47
2023-02-05T09:06:09.695Z,99612.69
2023-02-05T09:08:37.465Z,99609.03
2023-02-05T09:11:05.592Z,99613.16
2023-02-05T09:13:33.042Z,99608.53
2023-02-05T09:15:59.539Z,99618.00
2023-02-05T09:18:26.076Z,99629.38
2023-02-05T09:20:54.103Z,99632.03
2023-02-05T09:23:20.623Z,99634.28
2023-02-05T09:25:47.047Z,99648.03
2023-02-05T09:28:14.806Z,99649.25
2023-02-05T09:30:44.484Z,99648.88
2023-02-05T09:33:12.161Z,99650.81
2023-02-05T09:35:38.773Z,99645.75
2023-02-05T09:38:05.651Z,99656.63
2023-02-05T09:40:48.177Z,99656.00
2023-02-05T09:43:21.200Z,99643.69
2023-02-05T09:45:58.287Z,99646.94
2023-02-05T09:48:49.876Z,99644.41
2023-02-05T09:51:19.866Z,99639.94
2023-02-05T09:53:52.850Z,99625.38
2023-02-05T09:56:20.731Z,99623.50
2023-02-05T09:58:53.387Z,99613.75
2023-02-05T10:01:49.248Z,99617.44
2023-02-05T10:04:15.738Z,99594.19
2023-02-05T10:06:48.584Z,99593.66
2023-02-05T10:09:44.631Z,99590.88
2023-02-05T10:12:27.672Z,99595.13
2023-02-05T10:15:16.066Z,99583.16
2023-02-05T10:18:08.314Z,99588.75
2023-02-05T10:21:12.448Z,99573.22
2023-02-05T10:23:58.623Z,99598.59
2023-02-05T10:26:34.973Z,99584.50
2023-02-05T10:29:15.598Z,99580.13
2023-02-05T10:32:00.456Z,99565.44
2023-02-05T10:34:59.871Z,99562.94
2023-02-05T10:37:47.920Z,99558.38
2023-02-05T10:40:18.096Z,99554.25
2023-02-05T10:42:50.349Z,99549.03
2023-02-05T10:45:27.786Z,99560.06
2023-02-05T10:48:09.954Z,99558.63
2023-02-05T10:50:59.818Z,99538.19
2023-02-05T10:53:27.992Z,99566.19
2023-02-05T10:55:56.358Z,99563.78
2023-02-05T10:58:45.104Z,99545.28
2023-02-05T11:01:16.306Z,99551.72
2023-02-05T11:03:52.656Z,99552.41
2023-02-05T11:06:20.727Z,99546.69
2023-02-05T11:08:47.868Z,99536.47
2023-02-05T11:11:28.309Z,99544.13
2023-02-05T11:14:00.169Z,99539.59
2023-02-05T11:16:46.877Z,99550.56
2023-02-05T11:19:23.210Z,99543.25
2023-02-05T11:21:52.886Z,99537.66
2023-02-05T11:24:36.178Z,99540.91
2023-02-05T11:27:19.570Z,99514.28
2023-02-05T11:29:45.973Z,99504.22
2023-02-05T11:32:38.669Z,99521.88
2023-02-05T11:35:21.238Z,99502.59
2023-02-05T11:37:55.102Z,99518.09
2023-02-05T11:40:24.564Z,99524.31
2023-02-05T11:43:02.282Z,99522.75
2023-02-05T11:45:30.017Z,99529.22
2023-02-05T11:48:00.894Z,99536.88
2023-02-05T11:50:29.340Z,99530.47
2023-02-05T11:53:09.101Z,99528.53
2023-02-05T11:55:36.633Z,99512.88
2023-02-05T11:58:06.292Z,99524.84
2023-02-05T12:00:34.330Z,99515.84
2023-02-05T12:03:17.449Z,99523.69
2023-02-05T12:05:50.824Z,99518.72
2023-02-05T12:08:35.410Z,99523.00
2023-02-05T12:11:21.407Z,99517.09
2023-02-05T12:14:03.296Z,99517.47
2023-02-05T12:16:53.731Z,99502.47
2023-02-05T12:19:23.942Z,99496.75
2023-02-05T12:22:02.745Z,99478.38
2023-02-05T12:24:53.082Z,99469.22
2023-02-05T12:27:39.624Z,99444.13
2023-02-05T12:30:30.831Z,99444.06
2023-02-05T12:33:07.161Z,99448.91
2023-02-05T12:36:07.942Z,99452.31
2023-02-05T12:39:03.325Z,99437.00
2023-02-05T12:41:44.004Z,99448.63
2023-02-05T12:44:39.353Z,99434.66
2023-02-05T12:47:32.381Z,99423.09
2023-02-05T12:50:10.922Z,99432.19
2023-02-05T12:53:02.606Z,99422.63
2023-02-05T12:55:51.086Z,99422.53
2023-02-05T12:58:20.659Z,99423.66
2023-02-05T13:00:57.600Z,99413.06
2023-02-05T13:03:27.015Z,99415.66
2023-02-05T13:06:10.754Z,99419.06
2023-02-05T13:08:46.448Z,99416.84
2023-02-05T13:11:22.838Z,99412.88
2023-02-05T13:14:09.297Z,99388.22
2023-02-05T13:16:43.334Z,99425.41
2023-02-05T13:19:32.068Z,99411.19
2023-02-05T13:22:20.471Z,99408.66
2023-02-05T13:25:10.594Z,99402.34
2023-02-05T13:28:01.149Z,99413.66
2023-02-05T13:30:46.853Z,99421.28
2023-02-05T13:33:13.654Z,99433.47
2023-02-05T13:35:49.607Z,99428.50
2023-02-05T13:38:29.253Z,99414.34
2023-02-05T13:41:28.488Z,99419.19
2023-02-05T13:44:06.834Z,99412.25
2023-02-05T13:46:49.405Z,99434.41
2023-02-05T13:49:46.666Z,99428.16
2023-02-05T13:52:40.958Z,99431.75
2023-02-05T13:55:26.172Z,99421.44
2023-02-05T13:58:20.458Z,99407.19
2023-02-05T14:00:51.854Z,99417.47
2023-02-05T14:03:35.257Z,99411.69
2023-02-05T14:06:24.058Z,99421.78
2023-02-05T14:08:58.231Z,99442.69
2023-02-05T14:11:24.974Z,99434.31
2023-02-05T14:14:16.284Z,99414.22
2023-02-05T14:16:43.000Z,99438.47
2023-02-05T14:19:17.669Z,99438.19
2023-02-05T14:22:07.397Z,99443.81
2023-02-05T14:24:45.629Z,99429.88
2023-02-05T14:27:42.085Z,99431.72
2023-02-05T14:30:47.112Z,99431.59
2023-02-05T14:33:35.171Z,99431.69
2023-02-05T14:36:17.037Z,99428.81
2023-02-05T14:38:50.897Z,99441.13
2023-02-05T14:41:20.006Z,99465.16
2023-02-05T14:43:59.828Z,99469.97
2023-02-05T14:46:46.822Z,99470.72
2023-02-05T14:49:26.215Z,99485.72
2023-02-05T14:52:00.119Z,99489.44
2023-02-05T14:54:57.731Z,99502.50
2023-02-05T14:57:28.977Z,99518.94
2023-02-05T15:00:04.008Z,99522.88
2023-02-05T15:02:59.536Z,99526.13
2023-02-05T15:05:31.922Z,99533.81
2023-02-05T15:08:08.476Z,99534.88
2023-02-05T15:10:46.049Z,99529.22
2023-02-05T15:13:18.559Z,99537.75
2023-02-05T15:16:06.920Z,99536.38
2023-02-05T15:18:38.614Z,99548.09
2023-02-05T15:21:05.942Z,99548.41
2023-02-05T15:23:48.627Z,99553.47
2023-02-05T15:26:30.475Z,99554.88
2023-02-05T15:29:05.827Z,99555.09
2023-02-05T15:31:45.423Z,99568.63
2023-02-05T15:34:37.355Z,99568.81
2023-02-05T15:37:09.961Z,99564.19
2023-02-05T15:39:55.041Z,99559.13
2023-02-05T15:42:36.267Z,99552.91
2023-02-05T15:45:21.230Z,99558.13
2023-02-05T15:47:58.832Z,99556.38
2023-02-05T15:50:25.273Z,99566.16
2023-02-05T15:52:51.676Z,99579.53
2023-02-05T15:55:21.224Z,99573.38
2023-02-05T15:57:49.388Z,99571.34
2023-02-05T16:00:29.125Z,99554.88
2023-02-05T16:02:57.959Z,99570.78
2023-02-05T16:05:26.271Z,99564.59
2023-02-05T16:07:57.485Z,99574.19
2023-02-05T16:10:26.937Z,99568.19
2023-02-05T16:13:04.621Z,99563.63
2023-02-05T16:15:38.530Z,99555.03
2023-02-05T16:18:09.336Z,99559.38
2023-02-05T16:20:40.440Z,99558.94
2023-02-05T16:23:23.985Z,99558.78
2023-02-05T16:26:00.582Z,99541.31
2023-02-05T16:28:43.277Z,99527.75
2023-02-05T16:31:17.853Z,99525.28
2023-02-05T16:33:58.581Z,99514.69
2023-02-05T16:36:30.153Z,99507.53
2023-02-05T16:39:00.580Z,99493.16
2023-02-05T16:41:32.194Z,99502.47
2023-02-05T16:44:03.422Z,99495.13
2023-02-05T16:46:31.527Z,99498.38
2023-02-05T16:49:04.589Z,99495.28
2023-02-05T16:51:35.722Z,99484.63
2023-02-05T16:54:10.876Z,99472.44
2023-02-05T16:56:50.576Z,99472.44
2023-02-05T16:59:23.871Z,99478.50
2023-02-05T17:01:52.021Z,99495.25
2023-02-05T17:04:26.933Z,99499.88
2023-02-05T17:06:57.840Z,99468.44
2023-02-05T17:09:36.210Z,99475.97
2023-02-05T17:12:33.422Z,99479.50
2023-02-05T17:15:15.121Z,99491.59
2023-02-05T17:17:50.090Z,99501.59
2023-02-05T17:20:16.585Z,99481.38
2023-02-05T17:23:05.125Z,99492.63
2023-02-05T17:25:36.707Z,99490.03
2023-02-05T17:28:05.354Z,99460.75
2023-02-05T17:30:34.075Z,99456.03
2023-02-05T17:33:00.766Z,99432.72
2023-02-05T17:35:27.583Z,99432.38
2023-02-05T17:37:54.072Z,99429.19
2023-02-05T17:40:20.725Z,99420.59
2023-02-05T17:42:47.989Z,99445.25
2023-02-05T17:45:19.060Z,99438.94
2023-02-05T17:47:45.615Z,99437.94
2023-02-05T17:50:12.375Z,99431.47
2023-02-05T17:52:38.908Z,99427.25
2023-02-05T17:55:06.344Z,99422.69
2023-02-05T17:57:33.882Z,99423.97
2023-02-05T18:00:00.812Z,99426.41
2023-02-05T18:02:27.415Z,99421.88
2023-02-05T18:04:53.865Z,99420.69
2023-02-05T18:07:39.282Z,99424.16
2023-02-05T18:10:06.594Z,99429.19
2023-02-05T18:12:33.408Z,99424.28
2023-02-05T18:14:59.840Z,99428.22
2023-02-05T18:17:26.304Z,99423.03
2023-02-05T18:19:52.783Z,99419.56
2023-02-05T18:22:19.173Z,99412.59
2023-02-05T18:24:45.611Z,99385.81
2023-02-05T18:27:12.191Z,99387.47
2023-02-05T18:29:38.845Z,99393.16
2023-02-05T18:32:05.930Z,99399.75
2023-02-05T18:34:32.747Z,99419.34
2023-02-05T18:36:59.493Z,99405.94
2023-02-05T18:39:29.571Z,99394.13
2023-02-05T18:41:56.900Z,99383.31
2023-02-05T18:44:23.930Z,99376.34
2023-02-05T18:46:50.376Z,99397.91
2023-02-05T18:49:16.841Z,99404.19
2023-02-05T18:51:43.722Z,99384.88
2023-02-05T18:54:10.634Z,99404.97
2023-02-05T18:56:38.273Z,99392.03
2023-02-05T18:59:07.205Z,99402.72
2023-02-05T19:01:39.737Z,99398.50
2023-02-05T19:04:13.743Z,99387.94
2023-02-05T19:06:46.064Z,99390.91
2023-02-05T19:09:12.569Z,99384.25
2023-02-05T19:11:41.400Z,99384.25
2023-02-05T19:14:11.265Z,99366.34
2023-02-05T19:16:38.962Z,99357.91
2023-02-05T19:19:06.629Z,99364.50
2023-02-05T19:21:33.812Z,99368.38
2023-02-05T19:24:05.409Z,99361.09
2023-02-05T19:26:32.921Z,99367.75
2023-02-05T19:29:01.310Z,99373.28
2023-02-05T19:31:30.079Z,99378.03
2023-02-05T19:33:57.160Z,99384.50
2023-02-05T19:36:25.308Z,99401.34
2023-02-05T19:38:51.911Z,99409.44
2023-02-05T19:41:21.690Z,99420.34
2023-02-05T19:43:59.746Z,99422.81
2023-02-05T19:46:28.158Z,99427.59
2023-02-05T19:48:58.936Z,99428.34
2023-02-05T19:51:25.701Z,99428.03
2023-02-05T19:53:52.162Z,99445.75
2023-02-05T19:56:21.010Z,99456.53
2023-02-05T19:58:50.708Z,99452.84
2023-02-05T20:01:28.205Z,99470.38
2023-02-05T20:03:58.126Z,99465.53
2023-02-05T20:06:27.729Z,99462.56
2023-02-05T20:08:54.184Z,99466.63
2023-02-05T20:11:20.958Z,99461.75
2023-02-05T20:13:48.057Z,99451.31
2023-02-05T20:16:19.952Z,99470.06
2023-02-05T20:18:47.697Z,99464.13
2023-02-05T20:21:18.511Z,99456.22
2023-02-05T20:23:46.353Z,99481.91
2023-02-05T20:26:14.395Z,99479.16
2023-02-05T20:29:00.896Z,99494.00
2023-02-05T20:31:37.768Z,99504.00
2023-02-05T20:34:07.627Z,99515.50
2023-02-05T20:36:35.153Z,99520.09
2023-02-05T20:39:05.825Z,99533.44
2023-02-05T20:41:32.958Z,99539.09
2023-02-05T20:43:59.631Z,99550.94
2023-02-05T20:46:26.229Z,99551.06
2023-02-05T20:48:52.932Z,99537.00
2023-02-05T20:51:20.659Z,99561.44
2023-02-05T20:53:48.382Z,99566.84
2023-02-05T20:56:17.824Z,99560.44
2023-02-05T20:58:44.490Z,99559.25
2023-02-05T21:01:14.165Z,99550.66
2023-02-05T21:03:44.042Z,99553.19
2023-02-05T21:06:11.385Z,99562.56
2023-02-05T21:08:39.663Z,99554.66
2023-02-05T21:11:06.675Z,99578.63
2023-02-05T21:13:36.749Z,99586.53
2023-02-05T21:16:04.013Z,99592.50
2023-02-05T21:18:31.341Z,99595.19
2023-02-05T21:21:19.001Z,99591.13
2023-02-05T21:23:48.642Z,99600.69
2023-02-05T21:26:23.350Z,99630.50
2023-02-05T21:28:53.638Z,99634.94
2023-02-05T21:31:20.269Z,99653.59
2023-02-05T21:33:46.665Z,99666.28
2023-02-05T21:36:13.834Z,99671.44
2023-02-05T21:38:41.914Z,99677.03
2023-02-05T21:41:17.163Z,99679.91
2023-02-05T21:43:49.373Z,99678.22
2023-02-05T21:46:16.097Z,99669.56
2023-02-05T21:48:42.811Z,99673.47
2023-02-05T21:51:12.587Z,99660.22
2023-02-05T21:53:39.678Z,99654.34
2023-02-05T21:56:08.422Z,99650.66
2023-02-05T21:58:36.773Z,99649.13
2023-02-05T22:01:15.112Z,99671.16
2023-02-05T22:03:42.775Z,99674.28
2023-02-05T22:06:09.680Z,99671.47
2023-02-05T22:08:37.670Z,99686.53
2023-02-05T22:11:06.494Z,99688.38
2023-02-05T22:13:38.729Z,99692.81
2023-02-05T22:16:08.384Z,99706.25
2023-02-05T22:18:35.998Z,99699.72
2023-02-05T22:21:09.945Z,99695.13
2023-02-05T22:23:36.362Z,99701.63
2023-02-05T22:26:03.227Z,99692.56
2023-02-05T22:28:30.130Z,99697.91
2023-02-05T22:31:05.928Z,99703.97
2023-02-05T22:33:33.894Z,99700.59
2023-02-05T22:36:00.987Z,99699.72
2023-02-05T22:38:30.963Z,99695.94
2023-02-05T22:40:58.109Z,99701.41
2023-02-05T22:43:24.602Z,99707.25
2023-02-05T22:45:51.152Z,99694.78
2023-02-05T22:48:17.941Z,99706.50
2023-02-05T22:50:45.640Z,99700.25
2023-02-05T22:53:13.202Z,99685.38
2023-02-05T22:55:40.580Z,99699.28
2023-02-05T22:58:07.724Z,99688.38
2023-02-05T23:00:34.516Z,99688.72
2023-02-05T23:03:01.367Z,99692.28
2023-02-05T23:05:33.478Z,99696.47
2023-02-05T23:08:01.571Z,99708.72
2023-02-05T23:10:30.589Z,99713.97
2023-02-05T23:12:57.384Z,99720.06
2023-02-05T23:15:23.889Z,99716.81
2023-02-05T23:17:50.568Z,99708.03
2023-02-05T23:20:17.215Z,99721.22
2023-02-05T23:22:43.999Z,99725.00
2023-02-05T23:25:10.922Z,99734.34
2023-02-05T23:27:37.584Z,99729.97
2023-02-05T23:30:05.620Z,99738.38
2023-02-05T23:32:33.168Z,99742.38
2023-02-05T23:34:59.572Z,99740.75
2023-02-05T23:37:26.166Z,99746.94
2023-02-05T23:39:52.595Z,99748.34
2023-02-05T23:42:19.015Z,99756.50
2023-02-05T23:44:45.463Z,99758.75
2023-02-05T23:47:11.891Z,99763.84
2023-02-05T23:49:38.457Z,99758.22
2023-02-05T23:52:04.930Z,99743.72
2023-02-05T23:54:31.449Z,99731.25
2023-02-05T23:57:02.727Z,99710.94
2023-02-05T23:59:29.170Z,99703.78
